Latest Weather Observations for Port Macquarie Airport

IDN60801

Issued at 8:35 am EDT Wednesday 22 October 2014 (issued every 30 minutes, with the page automatically refreshed every 10 minutes)

About weather observations | Map of weather stations | Latest weather observations for NSW | Other Formats
Station Details ID: 060139 Name: PORT MACQUARIE AIRPORT AWS Lat: -31.43 Lon: 152.87 Height: 4.2 m
Data from the previous 72 hours. | See also: Recent months at Port Macquarie Airport
Date/Time
EDT
Temp
°C
App
Temp
°C
Dew
Point
Rel
Hum
%
Delta-T
°C
Wind Press
QNH
hPa
Press
MSL
hPa
Rain
since 9 am
mm
Dir
 
Spd
km/h
Gust
km/h
Spd
kts
Gust
kts
22/08:30am 15.9 14.2 12.5 80 1.9 W 13 17 7 9 1027.3 1027.3 0.8
22/08:00am 15.2 14.3 12.5 84 1.5 W 9 19 5 10 1027.3 1027.3 0.8
22/07:30am 14.5 13.1 12.2 86 1.2 W 11 19 6 10 1027.2 1027.2 0.8
22/07:00am 14.2 12.8 12.1 87 1.1 W 11 17 6 9 1027.1 1027.1 0.8
22/06:30am 13.9 12.1 12.1 89 1.0 W 13 20 7 11 1027.0 1027.0 0.8
22/06:00am 13.5 12.1 12.1 91 0.7 W 11 13 6 7 1027.0 1027.0 0.8
22/05:30am 13.2 12.1 11.9 92 0.7 SW 9 11 5 6 1026.9 1026.9 0.8
22/05:00am 13.2 12.1 11.9 92 0.7 W 9 13 5 7 1026.9 1026.9 0.8
22/04:30am 13.6 12.3 12.5 93 0.6 W 11 15 6 8 1027.0 1027.0 0.8
22/04:00am 13.8 13.3 12.7 93 0.6 W 7 11 4 6 1027.3 1027.3 0.8
22/03:30am 14.0 12.4 12.9 93 0.6 WNW 13 17 7 9 1027.5 1027.5 0.8
22/03:00am 14.1 13.0 13.1 94 0.5 NW 11 13 6 7 1028.0 1028.0 0.8
22/02:30am 14.4 14.3 13.3 93 0.6 NW 6 9 3 5 1028.5 1028.5 0.8
22/02:00am 14.2 14.8 13.2 94 0.5 SSW 2 7 1 4 1028.7 1028.7 0.8
22/01:30am 14.0 13.8 12.9 93 0.6 S 6 9 3 5 1029.0 1029.0 0.8
22/01:00am 14.7 13.8 13.6 93 0.6 NW 11 15 6 8 1029.1 1029.1 0.8
22/12:30am 15.0 15.1 13.9 93 0.6 WSW 6 11 3 6 1029.7 1029.7 0.8
22/12:00am 15.3 15.5 14.2 93 0.6 W 6 11 3 6 1030.0 1030.0 0.8
 
Date/Time
EDT
Temp
°C
App
Temp
°C
Dew
Point
Rel
Hum
%
Delta-T
°C
Wind Press
QNH
hPa
Press
MSL
hPa
Rain
since 9 am
mm
Dir
 
Spd
km/h
Gust
km/h
Spd
kts
Gust
kts
21/11:30pm 15.3 14.0 13.8 91 0.8 ESE 13 19 7 10 1030.2 1030.2 0.8
21/11:00pm 15.1 14.6 12.2 83 1.6 W 6 7 3 4 1030.1 1030.1 0.0
21/10:30pm 14.9 14.1 11.7 81 1.7 W 7 9 4 5 1030.3 1030.3 0.0
21/10:00pm 14.5 15.2 12.2 86 1.2 CALM 0 0 0 0 1030.3 1030.3 0.0
21/09:30pm 14.6 15.2 11.9 84 1.5 CALM 0 0 0 0 1030.3 1030.3 0.0
21/09:00pm 14.5 13.9 11.6 83 1.5 WSW 6 7 3 4 1030.2 1030.2 0.0
21/08:30pm 15.9 15.1 11.7 76 2.3 SSW 7 7 4 4 1030.1 1030.1 0.0
21/08:00pm 16.1 15.3 11.7 75 2.4 SSW 7 7 4 4 1029.9 1029.9 0.0
21/07:30pm 15.8 14.5 9.9 68 3.1 S 7 11 4 6 1029.6 1029.6 0.0
21/07:00pm 16.8 14.8 10.2 65 3.5 S 11 15 6 8 1029.5 1029.5 0.0
21/06:30pm 17.7 15.7 10.3 62 3.9 S 11 17 6 9 1029.2 1029.2 0.0
21/06:00pm 17.9 14.7 10.0 60 4.2 S 17 24 9 13 1029.0 1029.0 0.0
21/05:30pm 19.0 15.0 9.2 53 5.1 SSE 20 28 11 15 1028.9 1028.9 0.0
21/05:00pm 19.4 15.3 10.1 55 4.9 SE 22 28 12 15 1028.8 1028.8 0.0
21/04:30pm 19.8 15.8 10.5 55 5.0 S 22 33 12 18 1028.9 1028.9 0.0
21/04:00pm 20.1 16.0 10.2 53 5.3 SSE 22 32 12 17 1028.9 1028.9 0.0
21/03:30pm 20.4 16.6 9.0 48 6.0 SSE 19 30 10 16 1029.0 1029.0 0.0
21/03:00pm 20.1 15.4 7.8 45 6.3 S 22 32 12 17 1029.3 1029.3 0.0
21/02:30pm 20.4 16.4 9.0 48 6.0 SE 20 28 11 15 1029.6 1029.6 0.0
21/02:00pm 20.5 16.3 9.7 50 5.7 S 22 39 12 21 1030.1 1030.1 0.0
21/01:30pm 20.6 16.3 9.5 49 5.9 S 22 37 12 20 1030.3 1030.3 0.0
21/01:00pm 20.4 16.2 9.9 51 5.6 SSE 22 33 12 18 1030.6 1030.6 0.0
21/12:30pm 19.6 15.2 8.9 50 5.6 S 22 30 12 16 1030.7 1030.7 0.0
21/12:00pm 19.5 15.8 10.0 54 5.0 S 20 30 11 16 1030.9 1030.9 0.0
21/11:30am 19.1 15.6 10.1 56 4.8 S 19 30 10 16 1030.9 1030.9 0.0
21/11:00am 19.3 15.3 8.9 51 5.4 S 20 28 11 15 1031.0 1031.0 0.0
21/10:30am 19.3 15.0 9.5 53 5.2 SSW 22 32 12 17 1031.2 1031.2 0.0
21/10:00am 18.4 15.5 9.5 56 4.6 S 15 22 8 12 1031.3 1031.3 0.0
21/09:30am 17.7 14.9 10.1 61 4.0 S 15 22 8 12 1031.3 1031.3 0.0
21/09:00am 16.8 15.3 11.9 73 2.7 SW 11 15 6 8 1031.1 1031.1 4.4
21/08:30am 16.1 14.8 12.5 79 2.0 WSW 11 15 6 8 1030.8 1030.8 4.4
21/08:00am 15.9 14.8 11.9 77 2.2 WSW 9 11 5 6 1030.6 1030.6 4.4
21/07:30am 15.7 14.5 11.5 76 2.3 WSW 9 11 5 6 1030.2 1030.2 4.4
21/07:00am 15.3 13.8 10.5 73 2.5 SW 9 15 5 8 1029.9 1029.9 4.4
21/06:30am 15.4 13.8 10.2 71 2.7 SSW 9 13 5 7 1029.7 1029.7 4.4
21/06:00am 16.0 14.0 10.3 69 3.0 S 11 17 6 9 1029.4 1029.4 4.4
21/05:30am 15.6 12.9 10.2 70 2.8 S 15 22 8 12 1029.1 1029.1 4.4
21/05:00am 14.5 13.1 12.2 86 1.2 SSW 11 15 6 8 1028.9 1028.9 4.4
21/04:30am 14.8 14.1 13.3 91 0.8 SSW 9 13 5 7 1028.9 1028.9 4.4
21/04:00am 14.7 14.1 13.4 92 0.7 SSW 9 13 5 7 1028.9 1028.9 4.4
21/03:30am 14.9 13.6 13.8 93 0.6 SSW 13 17 7 9 1029.0 1029.0 4.4
21/03:00am 15.1 13.9 14.0 93 0.6 SSW 13 19 7 10 1029.1 1029.1 4.4
21/02:30am 15.1 13.8 13.8 92 0.7 SSW 13 15 7 8 1029.1 1029.1 4.2
21/02:00am 15.2 14.0 13.9 92 0.7 SSW 13 20 7 11 1029.4 1029.4 4.2
21/01:30am 15.5 14.4 14.2 92 0.7 SW 13 19 7 10 1029.6 1029.6 4.0
21/01:00am 15.5 14.0 14.2 92 0.7 SW 15 20 8 11 1029.6 1029.6 3.8
21/12:30am 15.8 14.1 14.7 93 0.6 WSW 17 22 9 12 1030.0 1030.0 3.8
21/12:00am 15.7 14.7 14.7 94 0.6 SW 13 17 7 9 1030.2 1030.2 3.4
 
Date/Time
EDT
Temp
°C
App
Temp
°C
Dew
Point
Rel
Hum
%
Delta-T
°C
Wind Press
QNH
hPa
Press
MSL
hPa
Rain
since 9 am
mm
Dir
 
Spd
km/h
Gust
km/h
Spd
kts
Gust
kts
20/11:30pm 16.0 15.5 14.9 93 0.6 SW 11 17 6 9 1030.3 1030.3 2.6
20/11:00pm 16.2 16.1 14.9 92 0.7 WSW 9 13 5 7 1030.2 1030.2 2.6
20/10:30pm 16.6 14.3 14.2 86 1.4 S 19 24 10 13 1030.4 1030.4 2.2
20/10:00pm 16.7 16.1 14.5 87 1.3 SW 11 15 6 8 1030.1 1030.1 2.0
20/09:30pm 16.8 15.7 14.4 86 1.4 SW 13 20 7 11 1029.9 1029.9 2.0
20/09:00pm 16.7 16.0 15.4 92 0.8 SW 13 20 7 11 1029.4 1029.4 2.0
20/08:30pm 16.8 15.7 15.2 90 0.9 SW 15 17 8 9 1029.0 1029.0 2.0
20/08:00pm 16.9 15.3 15.1 89 1.0 SSW 17 26 9 14 1028.7 1028.7 1.8
20/07:46pm 17.4 16.7 16.3 93 0.7 SSW 15 20 8 11 1028.5 1028.5 1.8
20/07:30pm 17.1 15.9 16.1 94 0.6 SW 17 22 9 12 1028.3 1028.3 1.6
20/07:23pm 17.3 15.6 16.3 94 0.6 SSW 20 26 11 14 1028.3 1028.3 1.2
20/07:22pm 17.3 15.8 16.3 94 0.6 SSW 19 26 10 14 1028.2 - 1.2
20/07:10pm 17.4 15.9 16.4 94 0.6 SSW 19 24 10 13 1028.1 1028.1 0.6
20/07:06pm 17.4 15.9 16.4 94 0.6 SW 19 24 10 13 1028.0 1028.0 0.4
20/07:02pm 17.5 16.1 16.5 94 0.6 SSW 19 24 10 13 1027.9 1027.9 0.2
20/07:01pm 17.5 16.1 16.5 94 0.6 SSW 19 24 10 13 1027.9 - 0.2
20/07:00pm 17.6 16.6 16.5 93 0.7 SSW 17 22 9 12 1027.9 1027.9 0.2
20/06:52pm 17.7 16.6 16.4 92 0.8 SSW 17 24 9 13 1027.7 1027.7 0.2
20/06:30pm 18.5 15.8 15.7 84 1.7 S 24 33 13 18 1027.5 1027.5 0.0
20/06:00pm 19.7 15.7 14.1 70 3.2 SSW 28 39 15 21 1027.2 1027.2 0.0
20/05:30pm 20.2 16.8 13.6 66 3.8 SSW 24 33 13 18 1026.9 1026.9 0.0
20/05:00pm 20.1 16.8 14.0 68 3.5 SSW 24 35 13 19 1027.0 1027.0 0.0
20/04:30pm 20.3 17.0 14.0 67 3.6 SSW 24 33 13 18 1026.8 1026.8 0.0
20/04:00pm 20.4 16.5 14.3 68 3.5 SSW 28 44 15 24 1026.8 1026.8 0.0
20/03:30pm 20.6 15.6 14.0 66 3.8 SW 33 46 18 25 1026.7 1026.7 0.0
20/03:00pm 20.1 14.2 13.6 66 3.7 SSW 37 52 20 28 1026.8 1026.8 0.0
20/02:37pm 20.7 15.7 14.1 66 3.8 S 33 52 18 28 1026.6 1026.6 0.0
20/02:30pm 20.6 15.9 14.3 67 3.7 S 32 44 17 24 1026.6 1026.6 0.0
20/02:02pm 20.6 15.4 14.5 68 3.6 SSW 35 54 19 29 1026.7 1026.7 0.0
20/02:00pm 20.8 16.0 14.7 68 3.6 S 33 50 18 27 1026.6 1026.6 0.0
20/01:45pm 21.0 15.9 14.9 68 3.6 S 35 56 19 30 1026.4 1026.4 0.0
20/01:30pm 21.6 15.9 15.2 67 3.8 S 39 54 21 29 1026.3 1026.3 0.0
20/01:06pm 23.7 17.5 16.0 62 4.7 SSW 43 61 23 33 1025.9 1025.9 0.0
20/01:05pm 23.4 17.6 16.0 63 4.5 SSW 41 59 22 32 1026.0 - 0.0
20/01:00pm 23.2 17.0 16.0 64 4.3 SSW 43 59 23 32 1025.9 1025.9 0.0
20/12:32pm 23.0 18.2 15.6 63 4.4 SSW 35 56 19 30 1025.7 1025.7 0.0
20/12:30pm 23.4 19.1 16.0 63 4.5 SSW 33 46 18 25 1025.7 1025.7 0.0
20/12:00pm 25.4 21.9 15.4 54 6.0 SSW 28 46 15 25 1025.4 1025.4 0.0
20/11:48am 24.4 20.3 14.8 55 5.7 S 30 50 16 27 1025.4 1025.4 0.0
20/11:30am 23.3 18.5 14.0 56 5.4 S 32 41 17 22 1025.5 1025.5 0.0
20/11:00am 24.9 22.6 14.7 53 6.1 S 20 30 11 16 1025.2 1025.2 0.0
20/10:30am 23.5 23.7 14.2 56 5.5 N 6 9 3 5 1024.3 1024.3 0.0
20/10:00am 21.6 21.6 13.5 60 4.6 WNW 6 9 3 5 1024.4 1024.4 0.0
20/09:30am 20.2 20.1 13.4 65 3.9 N 6 11 3 6 1024.3 1024.3 0.0
20/09:00am 18.3 18.8 12.7 70 3.1 NW 2 9 1 5 1024.1 1024.1 0.0
20/08:30am 16.1 15.9 13.0 82 1.7 WNW 6 9 3 5 1024.0 1024.0 0.0
20/08:00am 14.4 14.0 13.0 91 0.8 WNW 7 9 4 5 1023.9 1023.9 0.0
20/07:30am 13.0 12.6 12.4 96 0.3 NW 6 7 3 4 1023.6 1023.6 0.0
20/07:00am 11.7 10.9 11.2 97 0.3 NW 6 7 3 4 1023.7 1023.7 0.0
20/06:30am 11.1 10.9 10.6 97 0.3 N 2 7 1 4 1023.3 1023.3 0.0
20/06:00am 9.2 8.8 8.4 95 0.4 CALM 0 0 0 0 1023.2 1023.2 0.0
20/05:30am 9.6 9.3 8.8 95 0.4 CALM 0 0 0 0 1022.9 1022.9 0.0
20/05:00am 9.3 8.9 8.2 93 0.5 CALM 0 0 0 0 1022.7 1022.7 0.0
20/04:58am 9.3 8.9 8.2 93 0.5 CALM 0 0 0 0 1022.7 1022.7 0.0
20/04:42am 10.0 9.8 9.2 95 0.4 CALM 0 0 0 0 1022.7 1022.7 0.0
20/04:30am 9.8 9.5 8.7 93 0.5 CALM 0 0 0 0 1022.6 1022.6 0.0
20/04:00am 10.4 10.3 9.6 95 0.4 CALM 0 2 0 1 1022.7 1022.7 0.0
20/03:30am 10.7 10.7 9.8 94 0.5 CALM 0 2 0 1 1023.1 1023.1 0.0
20/03:00am 10.8 9.5 9.9 94 0.5 NNW 7 9 4 5 1023.3 1023.3 0.0
20/02:30am 10.9 10.1 9.8 93 0.6 NW 4 9 2 5 1023.7 1023.7 0.0
20/02:00am 11.3 11.4 10.2 93 0.6 CALM 0 4 0 2 1023.9 1023.9 0.0
20/01:30am 12.0 10.9 10.7 92 0.7 N 7 11 4 6 1024.2 1024.2 0.0
20/01:00am 12.0 11.1 10.6 91 0.7 N 6 7 3 4 1024.7 1024.7 0.0
20/12:30am 12.8 12.1 11.5 92 0.7 N 6 6 3 3 1025.1 1025.1 0.0
20/12:00am 13.1 12.2 10.6 85 1.3 N 6 6 3 3 1025.5 1025.5 0.0
 
Date/Time
EDT
Temp
°C
App
Temp
°C
Dew
Point
Rel
Hum
%
Delta-T
°C
Wind Press
QNH
hPa
Press
MSL
hPa
Rain
since 9 am
mm
Dir
 
Spd
km/h
Gust
km/h
Spd
kts
Gust
kts
19/11:30pm 13.3 12.4 11.5 89 1.0 N 7 7 4 4 1025.6 1025.6 0.0
19/11:00pm 14.4 13.8 12.3 87 1.1 N 7 9 4 5 1025.7 1025.7 0.0
19/10:30pm 13.5 12.6 11.4 87 1.1 NNW 7 9 4 5 1025.8 1025.8 0.0
19/10:00pm 14.5 13.7 11.6 83 1.5 N 7 9 4 5 1025.9 1025.9 0.0
19/09:30pm 15.4 14.6 11.8 79 1.9 N 7 9 4 5 1025.9 1025.9 0.0
19/09:00pm 17.0 15.9 12.1 73 2.7 N 9 11 5 6 1025.7 1025.7 0.0
19/08:30pm 17.3 16.7 12.2 72 2.8 N 7 11 4 6 1025.4 1025.4 0.0
19/08:00pm 17.8 16.3 12.0 69 3.2 N 11 13 6 7 1025.2 1025.2 0.0
19/07:30pm 18.7 17.2 11.8 64 3.8 NNE 11 15 6 8 1024.9 1024.9 0.0
19/07:00pm 19.1 17.2 11.7 62 4.1 NNE 13 19 7 10 1024.7 1024.7 0.0
19/06:30pm 19.9 17.3 11.9 60 4.4 NE 17 22 9 12 1024.6 1024.6 0.0
19/06:00pm 20.3 17.3 11.8 58 4.7 NE 19 26 10 14 1024.3 1024.3 0.0
19/05:30pm 20.8 17.6 12.0 57 4.9 NE 20 30 11 16 1024.0 1024.0 0.0
19/05:00pm 21.2 18.1 12.1 56 5.1 NE 20 30 11 16 1023.9 1023.9 0.0
19/04:30pm 21.1 18.0 12.3 57 5.0 NE 20 28 11 15 1023.9 1023.9 0.0
19/04:00pm 21.6 17.9 12.7 57 5.0 NE 24 32 13 17 1024.1 1024.1 0.0
19/03:30pm 21.3 17.6 12.7 58 4.9 NE 24 32 13 17 1024.2 1024.2 0.0
19/03:00pm 21.9 18.6 12.7 56 5.2 NE 22 30 12 16 1024.6 1024.6 0.0
19/02:30pm 21.5 17.6 12.1 55 5.3 ENE 24 32 13 17 1025.0 1025.0 0.0
19/02:00pm 21.3 17.0 11.9 55 5.2 ENE 26 33 14 18 1025.5 1025.5 0.0
19/01:30pm 21.4 17.5 12.0 55 5.3 ENE 24 33 13 18 1025.7 1025.7 0.0
19/01:00pm 21.4 17.0 11.7 54 5.4 ENE 26 32 14 17 1026.0 1026.0 0.0
19/12:30pm 21.7 17.9 12.5 56 5.2 ENE 24 32 13 17 1026.1 1026.1 0.0
19/12:00pm 22.0 19.3 13.6 59 4.8 ENE 20 28 11 15 1026.8 1026.8 0.0
19/11:30am 22.0 19.6 13.9 60 4.7 E 19 26 10 14 1027.1 1027.1 0.0
19/11:00am 21.0 18.5 12.2 57 4.9 ENE 17 20 9 11 1027.6 1027.6 0.0
19/10:30am 20.4 18.7 12.6 61 4.4 ENE 13 19 7 10 1028.0 1028.0 0.0
19/10:00am 20.0 18.4 11.7 59 4.6 N 11 20 6 11 1028.1 1028.1 0.0
19/09:30am 19.1 17.8 11.4 61 4.2 N 9 15 5 8 1028.2 1028.2 0.0
19/09:00am 18.8 17.9 12.5 67 3.5 NNW 9 13 5 7 1028.4 1028.4 0.0

Other Formats:

Comma delimited format used in spreadsheet applications
http://www.bom.gov.au/fwo/IDN60801/IDN60801.94786.axf

JavaScript Object Notation format (JSON) in row-major order
http://www.bom.gov.au/fwo/IDN60801/IDN60801.94786.json